createdAt,value
2022-11-09T00:01:30.133Z,82.3
2022-11-09T00:06:30.181Z,82.0
2022-11-09T00:11:30.123Z,82.0
2022-11-09T00:16:30.129Z,82.2
2022-11-09T00:21:30.129Z,82.1
2022-11-09T00:26:30.146Z,82.2
2022-11-09T00:31:30.138Z,82.0
2022-11-09T00:36:30.139Z,81.6
2022-11-09T00:41:30.135Z,81.6
2022-11-09T00:46:30.154Z,81.2
2022-11-09T00:51:30.137Z,81.4
2022-11-09T00:56:30.163Z,81.7
2022-11-09T01:01:30.272Z,81.9
2022-11-09T01:06:30.240Z,82.2
2022-11-09T01:11:30.153Z,82.5
2022-11-09T01:16:30.174Z,82.6
2022-11-09T01:21:30.167Z,82.5
2022-11-09T01:26:30.201Z,82.9
2022-11-09T01:31:30.161Z,82.9
2022-11-09T01:36:30.167Z,82.9
2022-11-09T01:41:30.170Z,83.2
2022-11-09T01:46:30.186Z,83.2
2022-11-09T01:51:30.177Z,83.5
2022-11-09T01:56:30.188Z,83.5
2022-11-09T02:01:30.243Z,83.4
2022-11-09T02:06:30.365Z,83.4
2022-11-09T02:11:30.194Z,83.7
2022-11-09T02:16:30.204Z,83.9
2022-11-09T02:21:30.193Z,84.2
2022-11-09T02:26:30.231Z,83.9
2022-11-09T02:31:30.203Z,83.5
2022-11-09T02:36:30.209Z,83.7
2022-11-09T02:41:30.228Z,83.8
2022-11-09T02:46:30.226Z,83.8
2022-11-09T02:51:30.213Z,83.5
2022-11-09T02:56:30.228Z,83.5
2022-11-09T03:01:30.329Z,83.8
2022-11-09T03:06:30.269Z,84.3
2022-11-09T03:11:30.216Z,84.7
2022-11-09T03:16:30.229Z,85.1
2022-11-09T03:21:30.227Z,85.6
2022-11-09T03:26:30.254Z,85.8
2022-11-09T03:31:30.233Z,86.0
2022-11-09T03:36:30.242Z,86.0
2022-11-09T03:41:30.241Z,85.9
2022-11-09T03:46:30.255Z,85.9
2022-11-09T03:51:30.244Z,85.7
2022-11-09T03:56:30.284Z,85.5
2022-11-09T04:01:30.298Z,85.3
2022-11-09T04:06:30.304Z,85.1
2022-11-09T04:11:30.265Z,85.3
2022-11-09T04:16:30.279Z,85.4
2022-11-09T04:21:30.270Z,85.7
2022-11-09T04:26:30.292Z,85.8
2022-11-09T04:31:30.272Z,86.1
2022-11-09T04:36:30.274Z,85.3
2022-11-09T04:41:30.282Z,85.5
2022-11-09T04:46:30.298Z,85.0
2022-11-09T04:51:30.295Z,85.1
2022-11-09T04:56:30.317Z,84.9
2022-11-09T05:01:30.291Z,85.2
2022-11-09T05:06:30.397Z,85.0
2022-11-09T05:11:30.302Z,85.4
2022-11-09T05:16:30.317Z,85.8
2022-11-09T05:21:30.295Z,86.0
2022-11-09T05:26:30.314Z,86.2
2022-11-09T05:31:30.314Z,86.4
2022-11-09T05:36:30.311Z,86.6
2022-11-09T05:41:30.311Z,86.6
2022-11-09T05:46:30.334Z,86.3
2022-11-09T05:51:30.320Z,86.8
2022-11-09T05:56:30.339Z,86.8
2022-11-09T06:01:30.328Z,87.3
2022-11-09T06:06:30.428Z,87.1
2022-11-09T06:11:30.333Z,87.1
2022-11-09T06:16:30.349Z,87.5
2022-11-09T06:21:30.335Z,87.4
2022-11-09T06:26:30.349Z,87.6
2022-11-09T06:31:30.341Z,87.6
2022-11-09T06:36:30.353Z,87.8
2022-11-09T06:41:30.345Z,87.9
2022-11-09T06:46:30.358Z,88.3
2022-11-09T06:51:30.353Z,88.5
2022-11-09T06:56:30.379Z,88.4
2022-11-09T07:01:30.425Z,88.7
2022-11-09T07:06:30.416Z,88.8
2022-11-09T07:11:30.369Z,89.0
2022-11-09T07:16:30.383Z,89.1
2022-11-09T07:21:30.369Z,89.2
2022-11-09T07:26:30.392Z,89.3
2022-11-09T07:31:30.378Z,89.4
2022-11-09T07:36:30.389Z,89.4
2022-11-09T07:41:34.526Z,89.3
2022-11-09T07:46:30.404Z,89.2
2022-11-09T07:51:30.392Z,89.2
2022-11-09T07:56:30.410Z,89.2
2022-11-09T08:01:30.394Z,89.1
2022-11-09T08:06:30.504Z,88.9
2022-11-09T08:11:30.409Z,88.7
2022-11-09T08:16:36.469Z,88.7
2022-11-09T08:21:30.407Z,88.6
2022-11-09T08:26:30.428Z,88.9
2022-11-09T08:31:30.414Z,88.5
2022-11-09T08:36:30.418Z,88.2
2022-11-09T08:41:30.415Z,88.0
2022-11-09T08:46:30.436Z,87.7
2022-11-09T08:51:30.424Z,87.1
2022-11-09T08:56:30.453Z,87.0
2022-11-09T09:01:30.500Z,86.4
2022-11-09T09:06:31.425Z,85.9
2022-11-09T09:11:30.442Z,85.3
2022-11-09T09:16:30.446Z,84.8
2022-11-09T09:21:30.439Z,84.6
2022-11-09T09:26:30.455Z,83.4
2022-11-09T09:31:30.455Z,82.4
2022-11-09T09:36:30.458Z,82.4
2022-11-09T09:41:30.450Z,82.1
2022-11-09T09:46:30.467Z,82.0
2022-11-09T09:51:30.456Z,81.0
2022-11-09T09:56:30.480Z,81.6
2022-11-09T10:01:30.466Z,81.1
2022-11-09T10:06:30.601Z,80.4
2022-11-09T10:11:30.477Z,80.0
2022-11-09T10:16:30.487Z,79.8
2022-11-09T10:21:30.476Z,80.1
2022-11-09T10:26:30.500Z,78.9
2022-11-09T10:31:30.478Z,78.7
2022-11-09T10:36:30.485Z,78.0
2022-11-09T10:41:30.493Z,77.7
2022-11-09T10:46:30.502Z,77.2
2022-11-09T10:51:30.496Z,77.0
2022-11-09T10:56:37.240Z,75.5
2022-11-09T11:01:30.547Z,76.7
2022-11-09T11:06:30.548Z,76.4
2022-11-09T11:11:35.159Z,76.9
2022-11-09T11:16:30.522Z,76.5
2022-11-09T11:21:30.507Z,77.2
2022-11-09T11:26:30.531Z,76.6
2022-11-09T11:31:30.516Z,77.8
2022-11-09T11:36:30.519Z,76.2
2022-11-09T11:41:30.520Z,75.1
2022-11-09T11:46:30.536Z,74.8
2022-11-09T11:51:30.552Z,74.5
2022-11-09T11:56:30.560Z,74.2
2022-11-09T12:01:30.548Z,74.6
2022-11-09T12:06:30.664Z,75.4
2022-11-09T12:11:30.551Z,74.4
2022-11-09T12:16:30.572Z,72.4
2022-11-09T12:21:30.549Z,72.0
2022-11-09T12:26:30.563Z,73.2
2022-11-09T12:36:30.617Z,72.2
2022-11-09T12:41:30.562Z,72.9
2022-11-09T12:46:30.578Z,73.2
2022-11-09T12:51:30.572Z,73.2
2022-11-09T12:56:30.599Z,73.9
2022-11-09T13:01:30.651Z,72.5
2022-11-09T13:06:30.686Z,71.5
2022-11-09T13:11:30.599Z,71.7
2022-11-09T13:16:30.605Z,71.6
2022-11-09T13:21:30.587Z,72.4
2022-11-09T13:26:30.612Z,71.5
2022-11-09T13:31:30.593Z,72.6
2022-11-09T13:36:30.596Z,72.3
2022-11-09T13:41:30.600Z,72.9
2022-11-09T13:46:30.615Z,74.0
2022-11-09T13:51:30.608Z,73.1
2022-11-09T13:56:30.638Z,72.7
2022-11-09T14:01:34.268Z,71.6
2022-11-09T14:06:30.673Z,72.1
2022-11-09T14:11:30.616Z,71.9
2022-11-09T14:16:30.628Z,71.8
2022-11-09T14:21:30.634Z,73.1
2022-11-09T14:26:30.647Z,72.1
2022-11-09T14:31:30.628Z,72.9
2022-11-09T14:36:30.644Z,72.6
2022-11-09T14:41:30.634Z,72.6
2022-11-09T14:46:30.659Z,72.7
2022-11-09T14:51:30.641Z,72.1
2022-11-09T14:56:30.660Z,72.3
2022-11-09T15:01:30.647Z,72.3
2022-11-09T15:06:30.714Z,72.6
2022-11-09T15:11:30.654Z,73.4
2022-11-09T15:16:30.665Z,73.9
2022-11-09T15:21:30.658Z,74.3
2022-11-09T15:26:30.686Z,74.8
2022-11-09T15:31:30.667Z,75.4
2022-11-09T15:36:30.667Z,76.3
2022-11-09T15:41:30.669Z,77.2
2022-11-09T15:46:30.680Z,80.3
2022-11-09T15:51:30.684Z,81.9
2022-11-09T15:56:30.706Z,81.4
2022-11-09T16:01:30.681Z,81.7
2022-11-09T16:06:30.744Z,82.4
2022-11-09T16:11:30.687Z,82.0
2022-11-09T16:16:30.712Z,82.4
2022-11-09T16:21:30.693Z,81.7
2022-11-09T16:26:30.717Z,81.2
2022-11-09T16:31:50.217Z,80.9
2022-11-09T16:36:30.723Z,80.3
2022-11-09T16:41:30.707Z,80.7
2022-11-09T16:46:30.720Z,81.0
2022-11-09T16:51:30.716Z,81.0
2022-11-09T16:56:30.738Z,80.7
2022-11-09T17:01:30.776Z,81.1
2022-11-09T17:06:30.778Z,81.6
2022-11-09T17:11:30.719Z,81.7
2022-11-09T17:16:30.736Z,81.9
2022-11-09T17:21:30.737Z,81.9
2022-11-09T17:26:30.745Z,82.4
2022-11-09T17:31:30.741Z,82.5
2022-11-09T17:36:57.348Z,82.7
2022-11-09T17:41:30.743Z,82.9
2022-11-09T17:46:30.756Z,83.4
2022-11-09T17:51:30.750Z,83.7
2022-11-09T17:56:30.784Z,84.2
2022-11-09T18:01:30.999Z,84.0
2022-11-09T18:06:30.790Z,83.9
2022-11-09T18:11:30.766Z,84.1
2022-11-09T18:16:30.772Z,84.0
2022-11-09T18:21:30.767Z,84.5
2022-11-09T18:26:30.776Z,84.4
2022-11-09T18:31:30.770Z,84.6
2022-11-09T18:36:30.771Z,85.0
2022-11-09T18:41:30.777Z,84.7
2022-11-09T18:46:30.792Z,84.6
2022-11-09T18:51:30.790Z,84.9
2022-11-09T18:56:30.802Z,85.0
2022-11-09T19:01:30.788Z,85.0
2022-11-09T19:06:30.877Z,85.2
2022-11-09T19:11:30.813Z,85.6
2022-11-09T19:16:30.808Z,86.1
2022-11-09T19:21:30.798Z,86.4
2022-11-09T19:26:30.818Z,86.7
2022-11-09T19:31:30.806Z,87.8
2022-11-09T19:36:31.504Z,89.5
2022-11-09T19:41:30.832Z,90.1
2022-11-09T19:46:30.827Z,90.5
2022-11-09T19:51:30.819Z,90.7
2022-11-09T19:56:30.832Z,91.7
2022-11-09T20:01:30.921Z,92.2
2022-11-09T20:06:30.876Z,92.1
2022-11-09T20:11:30.837Z,92.5
2022-11-09T20:16:30.849Z,92.4
2022-11-09T20:21:30.839Z,92.3
2022-11-09T20:26:30.852Z,92.3
2022-11-09T20:31:30.836Z,92.4
2022-11-09T20:36:30.843Z,92.6
2022-11-09T20:41:30.855Z,92.5
2022-11-09T20:45:14.526Z,92.6
2022-11-09T20:46:35.736Z,92.6
2022-11-09T20:51:30.852Z,92.7
2022-11-09T20:56:30.868Z,92.8
2022-11-09T21:01:30.964Z,92.9
2022-11-09T21:06:30.983Z,93.0
2022-11-09T21:11:30.866Z,93.2
2022-11-09T21:16:30.901Z,93.3
2022-11-09T21:21:36.054Z,93.2
2022-11-09T21:26:30.875Z,93.2
2022-11-09T21:31:30.872Z,93.1
2022-11-09T21:36:30.881Z,93.3
2022-11-09T21:41:30.877Z,93.4
2022-11-09T21:46:30.910Z,93.5
2022-11-09T21:51:30.884Z,93.7
2022-11-09T21:56:30.888Z,93.6
2022-11-09T22:01:30.941Z,93.5
2022-11-09T22:06:30.968Z,93.7
2022-11-09T22:11:30.899Z,93.7
2022-11-09T22:16:30.934Z,93.8
2022-11-09T22:21:30.901Z,93.9
2022-11-09T22:26:30.904Z,94.1
2022-11-09T22:31:30.905Z,94.1
2022-11-09T22:36:30.913Z,94.1
2022-11-09T22:41:30.914Z,94.0
2022-11-09T22:46:30.955Z,94.1
2022-11-09T22:51:30.920Z,94.1
2022-11-09T22:56:30.924Z,94.0
2022-11-09T23:01:31.023Z,94.3
2022-11-09T23:06:30.946Z,94.4
2022-11-09T23:11:30.939Z,94.4
2022-11-09T23:16:30.972Z,94.6
2022-11-09T23:21:30.941Z,94.7
2022-11-09T23:26:30.952Z,94.9
2022-11-09T23:31:30.945Z,95.0
2022-11-09T23:36:30.955Z,95.0
2022-11-09T23:41:30.948Z,95.3
2022-11-09T23:46:30.979Z,95.1
2022-11-09T23:51:30.952Z,95.3
2022-11-09T23:56:30.958Z,95.4
